Time;durP1;ratioP1;P1;durP2;ratioP2;P2;SDS_P1;SDS_P2;PMS_P1;PMS_P2;Temp;Humidity;BMP_temperature;BMP_pressure;BME280_temperature;BME280_humidity;BME280_pressure;Samples;Min_cycle;Max_cycle;Signal;HPM_P1;HPM_P2
2023/08/05 00:02:54;;;;;;;;;;;;;;;15.64;73.61133;101774.7;;;;-68
2023/08/05 00:07:57;;;;;;;;;;;;;;;15.65;73.90234;101769.6;;;;-68
2023/08/05 00:12:54;;;;;;;;;;;;;;;15.66;73.52441;101765.3;;;;-68
2023/08/05 00:14:08;;;;;;;0.2;0.1;;;;;;;;;;;;;-69
2023/08/05 00:17:54;;;;;;;;;;;;;;;15.66;73.69238;101767.6;;;;-68
2023/08/05 00:22:54;;;;;;;;;;;;;;;15.68;73.67285;101768.8;;;;-69
2023/08/05 00:27:54;;;;;;;;;;;;;;;15.68;73.7627;101767.9;;;;-69
2023/08/05 00:37:56;;;;;;;;;;;;;;;15.69;73.60742;101751.9;;;;-68
2023/08/05 00:42:56;;;;;;;;;;;;;;;15.71;74.00488;101746.7;;;;-68
2023/08/05 00:44:10;;;;;;;0.2;0;;;;;;;;;;;;;-69
2023/08/05 00:47:56;;;;;;;;;;;;;;;15.7;74.08008;101732.9;;;;-68
2023/08/05 00:52:54;;;;;;;;;;;;;;;15.7;73.99023;101722;;;;-68
2023/08/05 00:57:55;;;;;;;;;;;;;;;15.71;73.92578;101723.7;;;;-68
2023/08/05 01:02:54;;;;;;;;;;;;;;;15.69;74.3252;101716.1;;;;-67
2023/08/05 01:07:54;;;;;;;;;;;;;;;15.68;74.52734;101720.6;;;;-68
2023/08/05 01:12:54;;;;;;;;;;;;;;;15.67;74.21191;101726.5;;;;-68
2023/08/05 01:14:12;;;;;;;0.2;0.1;;;;;;;;;;;;;-69
2023/08/05 01:17:56;;;;;;;;;;;;;;;15.7;74.22559;101731.2;;;;-68
2023/08/05 01:22:57;;;;;;;;;;;;;;;15.7;74.6748;101730.5;;;;-67
2023/08/05 01:27:56;;;;;;;;;;;;;;;15.7;74.86523;101732.4;;;;-68
2023/08/05 01:32:55;;;;;;;;;;;;;;;15.71;75.19336;101717;;;;-69
2023/08/05 01:37:54;;;;;;;;;;;;;;;15.7;74.96777;101717;;;;-68
2023/08/05 01:42:54;;;;;;;;;;;;;;;15.71;74.8125;101709.4;;;;-69
2023/08/05 01:44:14;;;;;;;0.3;0.1;;;;;;;;;;;;;-68
2023/08/05 01:47:54;;;;;;;;;;;;;;;15.72;74.90332;101703;;;;-68
2023/08/05 01:52:55;;;;;;;;;;;;;;;15.71;74.68848;101699.4;;;;-67
2023/08/05 01:57:54;;;;;;;;;;;;;;;15.71;74.89063;101692.8;;;;-69
2023/08/05 02:02:54;;;;;;;;;;;;;;;15.73;74.99512;101692.6;;;;-68
2023/08/05 02:07:54;;;;;;;;;;;;;;;15.75;74.81836;101695.3;;;;-69
2023/08/05 02:12:55;;;;;;;;;;;;;;;15.74;74.7832;101695.8;;;;-68
2023/08/05 02:14:17;;;;;;;0.2;0;;;;;;;;;;;;;-68
2023/08/05 02:17:54;;;;;;;;;;;;;;;15.73;75.26367;101689.7;;;;-68
2023/08/05 02:22:56;;;;;;;;;;;;;;;15.75;74.91895;101689.1;;;;-68
2023/08/05 02:27:54;;;;;;;;;;;;;;;15.77;74.77832;101680.5;;;;-68
2023/08/05 02:32:54;;;;;;;;;;;;;;;15.76;75.78418;101669.8;;;;-68
2023/08/05 02:37:54;;;;;;;;;;;;;;;15.77;75.81934;101662.8;;;;-70
2023/08/05 02:42:56;;;;;;;;;;;;;;;15.77;75.89941;101663.3;;;;-68
2023/08/05 02:44:20;;;;;;;0.2;0.1;;;;;;;;;;;;;-68
2023/08/05 02:47:54;;;;;;;;;;;;;;;15.79;75.88965;101658.5;;;;-67
2023/08/05 02:52:56;;;;;;;;;;;;;;;15.78;76.4502;101654.6;;;;-68
2023/08/05 02:57:54;;;;;;;;;;;;;;;15.79;75.99219;101640.4;;;;-69
2023/08/05 03:02:54;;;;;;;;;;;;;;;15.8;76.31738;101622.5;;;;-68
2023/08/05 03:07:55;;;;;;;;;;;;;;;15.79;75.59863;101618.6;;;;-71
2023/08/05 03:12:54;;;;;;;;;;;;;;;15.76;75.75098;101611.8;;;;-71
2023/08/05 03:14:21;;;;;;;0.2;0;;;;;;;;;;;;;-69
2023/08/05 03:17:54;;;;;;;;;;;;;;;15.71;75.87695;101611.9;;;;-70
2023/08/05 03:22:57;;;;;;;;;;;;;;;15.66;75.58887;101612.6;;;;-69
2023/08/05 03:27:54;;;;;;;;;;;;;;;15.62;75.66992;101615;;;;-69
2023/08/05 03:32:54;;;;;;;;;;;;;;;15.59;75.49805;101612.5;;;;-68
2023/08/05 03:37:54;;;;;;;;;;;;;;;15.58;75.50781;101611.9;;;;-69
2023/08/05 03:42:54;;;;;;;;;;;;;;;15.56;75.8623;101605.5;;;;-68
2023/08/05 03:44:23;;;;;;;0.2;0;;;;;;;;;;;;;-67
2023/08/05 03:47:54;;;;;;;;;;;;;;;15.53;75.67773;101607.6;;;;-68
2023/08/05 03:52:54;;;;;;;;;;;;;;;15.52;75.37402;101601.6;;;;-69
2023/08/05 03:57:54;;;;;;;;;;;;;;;15.48;76.02734;101595.5;;;;-68
2023/08/05 04:02:55;;;;;;;;;;;;;;;15.43;75.69629;101578.3;;;;-69
2023/08/05 04:07:56;;;;;;;;;;;;;;;15.41;75.87109;101565.5;;;;-69
2023/08/05 04:12:54;;;;;;;;;;;;;;;15.39;75.86621;101565.8;;;;-69
2023/08/05 04:14:26;;;;;;;0.2;0;;;;;;;;;;;;;-68
2023/08/05 04:17:59;;;;;;;;;;;;;;;15.39;75.88867;101564.3;;;;-68
2023/08/05 04:22:54;;;;;;;;;;;;;;;15.35;76.18457;101557.3;;;;-68
2023/08/05 04:27:54;;;;;;;;;;;;;;;15.33;76.45996;101556.9;;;;-68
2023/08/05 04:32:54;;;;;;;;;;;;;;;15.33;76.13477;101548.8;;;;-68
2023/08/05 04:37:54;;;;;;;;;;;;;;;15.3;76.17676;101553.8;;;;-68
2023/08/05 04:42:54;;;;;;;;;;;;;;;15.3;76.32031;101543.9;;;;-69
2023/08/05 04:44:29;;;;;;;0.2;0.1;;;;;;;;;;;;;-68
2023/08/05 04:47:54;;;;;;;;;;;;;;;15.28;76.87695;101529;;;;-68
2023/08/05 04:52:54;;;;;;;;;;;;;;;15.29;76.56543;101524.2;;;;-68
2023/08/05 04:57:56;;;;;;;;;;;;;;;15.3;77.12891;101518.6;;;;-68
2023/08/05 05:02:57;;;;;;;;;;;;;;;15.31;76.90625;101507.6;;;;-69
2023/08/05 05:07:54;;;;;;;;;;;;;;;15.32;77.00684;101510.5;;;;-70
2023/08/05 05:12:56;;;;;;;;;;;;;;;15.34;77.40332;101506.4;;;;-69
2023/08/05 05:14:30;;;;;;;0.2;0;;;;;;;;;;;;;-69
2023/08/05 05:17:54;;;;;;;;;;;;;;;15.39;77.05273;101497;;;;-68
2023/08/05 05:22:56;;;;;;;;;;;;;;;15.4;77.39258;101491.4;;;;-69
2023/08/05 05:27:54;;;;;;;;;;;;;;;15.45;77.72461;101477.4;;;;-69
2023/08/05 05:32:55;;;;;;;;;;;;;;;15.49;77.71094;101476.5;;;;-69
2023/08/05 05:37:54;;;;;;;;;;;;;;;15.55;77.92188;101474.9;;;;-68
2023/08/05 05:42:54;;;;;;;;;;;;;;;15.6;78.89355;101468.1;;;;-68
2023/08/05 05:44:34;;;;;;;0.2;0.1;;;;;;;;;;;;;-68
2023/08/05 05:47:54;;;;;;;;;;;;;;;15.65;78.17285;101460.9;;;;-68
2023/08/05 05:52:56;;;;;;;;;;;;;;;15.7;78.4873;101461.7;;;;-68
2023/08/05 05:57:54;;;;;;;;;;;;;;;15.76;78.70996;101462;;;;-68
2023/08/05 06:02:54;;;;;;;;;;;;;;;15.83;79.22656;101468.6;;;;-69
2023/08/05 06:07:54;;;;;;;;;;;;;;;15.92;80.02734;101471.9;;;;-68
2023/08/05 06:12:55;;;;;;;;;;;;;;;16.05;78.44531;101469.3;;;;-68
2023/08/05 06:14:36;;;;;;;0.2;0.1;;;;;;;;;;;;;-71
2023/08/05 06:17:56;;;;;;;;;;;;;;;16.38;80.65918;101473.8;;;;-68
2023/08/05 06:22:54;;;;;;;;;;;;;;;16.58;79.85547;101470.9;;;;-69
2023/08/05 06:28:06;;;;;;;;;;;;;;;16.73;80.19629;101463.3;;;;-68
2023/08/05 06:32:54;;;;;;;;;;;;;;;16.81;80.53418;101453.6;;;;-68
2023/08/05 06:37:54;;;;;;;;;;;;;;;16.87;79.9043;101443.6;;;;-69
2023/08/05 06:42:54;;;;;;;;;;;;;;;16.91;80.49609;101447.7;;;;-69
2023/08/05 06:44:37;;;;;;;0.3;0.2;;;;;;;;;;;;;-68
2023/08/05 06:47:54;;;;;;;;;;;;;;;16.97;80.67676;101435.9;;;;-68
2023/08/05 06:52:54;;;;;;;;;;;;;;;17.06;81.36719;101439.9;;;;-68
2023/08/05 06:57:54;;;;;;;;;;;;;;;17.23;80.92676;101442.2;;;;-69
2023/08/05 07:02:54;;;;;;;;;;;;;;;17.4;81.18262;101430.3;;;;-67
2023/08/05 07:07:54;;;;;;;;;;;;;;;17.54;80.0498;101417.2;;;;-69
2023/08/05 07:12:54;;;;;;;;;;;;;;;17.67;80.0957;101415.1;;;;-69
2023/08/05 07:14:39;;;;;;;0.2;0.1;;;;;;;;;;;;;-68
2023/08/05 07:17:54;;;;;;;;;;;;;;;17.65;79.96875;101404;;;;-67
2023/08/05 07:22:54;;;;;;;;;;;;;;;17.81;79.46777;101402.9;;;;-69
2023/08/05 07:27:56;;;;;;;;;;;;;;;17.91;79.8457;101392.2;;;;-68
2023/08/05 07:32:54;;;;;;;;;;;;;;;18.1;79.13672;101389.4;;;;-68
2023/08/05 07:37:55;;;;;;;;;;;;;;;18.26;78.86133;101378.1;;;;-69
2023/08/05 07:42:54;;;;;;;;;;;;;;;18.34;77.95215;101376.8;;;;-69
2023/08/05 07:44:42;;;;;;;0.2;0;;;;;;;;;;;;;-68
2023/08/05 07:47:58;;;;;;;;;;;;;;;18.39;78.0625;101372.3;;;;-68
2023/08/05 07:52:55;;;;;;;;;;;;;;;18.51;78.02539;101377;;;;-69
2023/08/05 07:57:56;;;;;;;;;;;;;;;18.65;77.38379;101358;;;;-68
2023/08/05 08:02:54;;;;;;;;;;;;;;;18.72;76.82324;101359.9;;;;-69
2023/08/05 08:07:56;;;;;;;;;;;;;;;18.86;75.94141;101353.3;;;;-72
2023/08/05 08:12:54;;;;;;;;;;;;;;;19.03;75.55273;101339.9;;;;-71
2023/08/05 08:14:48;;;;;;;0.2;0;;;;;;;;;;;;;-73
2023/08/05 08:17:54;;;;;;;;;;;;;;;19.2;75.33398;101326.7;;;;-73
2023/08/05 08:22:54;;;;;;;;;;;;;;;19.36;74.43262;101316.1;;;;-72
2023/08/05 08:27:55;;;;;;;;;;;;;;;19.58;73.74512;101313.5;;;;-72
2023/08/05 08:32:54;;;;;;;;;;;;;;;20.12;72.97559;101315.9;;;;-72
2023/08/05 08:37:54;;;;;;;;;;;;;;;20.75;70.37598;101301.7;;;;-71
2023/08/05 08:42:54;;;;;;;;;;;;;;;21.06;69.24219;101294.5;;;;-74
2023/08/05 08:44:49;;;;;;;0.2;0.1;;;;;;;;;;;;;-72
2023/08/05 08:47:54;;;;;;;;;;;;;;;21.17;68.60938;101280.1;;;;-71
2023/08/05 08:52:54;;;;;;;;;;;;;;;21.21;68.72949;101283.3;;;;-72
2023/08/05 08:57:54;;;;;;;;;;;;;;;21.54;67.9834;101272.5;;;;-72
2023/08/05 09:02:54;;;;;;;;;;;;;;;21.82;67.86621;101283;;;;-72
2023/08/05 09:07:54;;;;;;;;;;;;;;;21.73;66.31543;101271.1;;;;-71
2023/08/05 09:12:57;;;;;;;;;;;;;;;21.7;66.58398;101256.9;;;;-71
2023/08/05 09:14:55;;;;;;;0.2;0;;;;;;;;;;;;;-72
2023/08/05 09:17:54;;;;;;;;;;;;;;;21.65;65.58594;101254.1;;;;-71
2023/08/05 09:23:03;;;;;;;;;;;;;;;21.69;66.3418;101241.8;;;;-73
2023/08/05 09:27:55;;;;;;;;;;;;;;;21.83;65.96484;101233.2;;;;-72
2023/08/05 09:32:56;;;;;;;;;;;;;;;22;64.92871;101223.6;;;;-73
2023/08/05 09:37:56;;;;;;;;;;;;;;;22.12;64.4541;101223.9;;;;-71
2023/08/05 09:42:59;;;;;;;;;;;;;;;22.11;64.52246;101218.5;;;;-71
2023/08/05 09:44:58;;;;;;;0.9;0.1;;;;;;;;;;;;;-71
2023/08/05 09:48:03;;;;;;;;;;;;;;;22.06;64.62988;101213.5;;;;-71
2023/08/05 09:52:59;;;;;;;;;;;;;;;22.06;65.0293;101213.2;;;;-72
2023/08/05 09:57:54;;;;;;;;;;;;;;;21.91;64.3457;101207.2;;;;-73
2023/08/05 10:02:54;;;;;;;;;;;;;;;21.91;64.26465;101203.1;;;;-71
2023/08/05 10:07:58;;;;;;;;;;;;;;;21.82;65.2793;101199.4;;;;-71
2023/08/05 10:12:55;;;;;;;;;;;;;;;22;64.46094;101189.6;;;;-71
2023/08/05 10:14:58;;;;;;;0.2;0.1;;;;;;;;;;;;;-72
2023/08/05 10:17:55;;;;;;;;;;;;;;;22.12;63.66797;101178.4;;;;-70
2023/08/05 10:23:06;;;;;;;;;;;;;;;22.08;63.83203;101165;;;;-73
2023/08/05 10:27:54;;;;;;;;;;;;;;;22.07;64.04883;101158.2;;;;-71
2023/08/05 10:32:58;;;;;;;;;;;;;;;22;64.07324;101143.9;;;;-71
2023/08/05 10:38:06;;;;;;;;;;;;;;;21.94;64.48633;101133;;;;-71
2023/08/05 10:42:54;;;;;;;;;;;;;;;21.91;64.43652;101126.4;;;;-70
2023/08/05 10:45:01;;;;;;;0.2;0;;;;;;;;;;;;;-71
2023/08/05 10:47:54;;;;;;;;;;;;;;;21.91;64.35645;101120.6;;;;-72
2023/08/05 10:52:54;;;;;;;;;;;;;;;21.87;65.41113;101122.3;;;;-73
2023/08/05 10:57:58;;;;;;;;;;;;;;;21.88;64.44238;101120.8;;;;-69
2023/08/05 11:03:04;;;;;;;;;;;;;;;21.84;63.53613;101117.4;;;;-71
2023/08/05 11:07:55;;;;;;;;;;;;;;;21.74;62.64355;101113.8;;;;-71
2023/08/05 11:12:57;;;;;;;;;;;;;;;21.62;63.24316;101110.9;;;;-71
2023/08/05 11:15:04;;;;;;;0.2;0;;;;;;;;;;;;;-71
2023/08/05 11:17:59;;;;;;;;;;;;;;;21.47;63.49512;101105.8;;;;-76
2023/08/05 11:22:54;;;;;;;;;;;;;;;21.28;63.09277;101097.5;;;;-77
2023/08/05 11:27:55;;;;;;;;;;;;;;;21.1;64.38867;101088;;;;-71
2023/08/05 11:32:59;;;;;;;;;;;;;;;20.9;64.65527;101084.7;;;;-73
2023/08/05 11:37:54;;;;;;;;;;;;;;;20.82;65.17871;101076.4;;;;-71
2023/08/05 11:42:54;;;;;;;;;;;;;;;20.71;64.61621;101071.1;;;;-73
2023/08/05 11:45:08;;;;;;;0.2;0;;;;;;;;;;;;;-72
2023/08/05 11:47:54;;;;;;;;;;;;;;;20.6;65.44238;101068;;;;-73
2023/08/05 11:53:05;;;;;;;;;;;;;;;20.61;65.94434;101057.1;;;;-72
2023/08/05 11:58:04;;;;;;;;;;;;;;;20.61;65.09082;101064;;;;-69
2023/08/05 12:02:55;;;;;;;;;;;;;;;20.59;65.20215;101054;;;;-72
2023/08/05 12:07:54;;;;;;;;;;;;;;;20.61;65.35156;101046.4;;;;-72
2023/08/05 12:12:55;;;;;;;;;;;;;;;20.49;65.48438;101053.8;;;;-72
2023/08/05 12:15:17;;;;;;;0.2;0;;;;;;;;;;;;;-72
2023/08/05 12:17:59;;;;;;;;;;;;;;;20.36;65.49902;101053.1;;;;-72
2023/08/05 12:22:54;;;;;;;;;;;;;;;20.16;65.58301;101042.3;;;;-72
2023/08/05 12:27:56;;;;;;;;;;;;;;;20.04;66.41699;101046.8;;;;-72
2023/08/05 12:32:57;;;;;;;;;;;;;;;19.8;67.61719;101050.7;;;;-72
2023/08/05 12:37:54;;;;;;;;;;;;;;;19.45;68.41504;101050.4;;;;-72
2023/08/05 12:42:57;;;;;;;;;;;;;;;19.19;68.74805;101057.4;;;;-72
2023/08/05 12:45:15;;;;;;;0.2;0;;;;;;;;;;;;;-72
2023/08/05 12:47:54;;;;;;;;;;;;;;;19.05;69.11133;101056.7;;;;-71
2023/08/05 12:52:54;;;;;;;;;;;;;;;18.92;69.47559;101054.4;;;;-71
2023/08/05 12:57:54;;;;;;;;;;;;;;;18.84;69.12305;101051.1;;;;-71
2023/08/05 13:02:54;;;;;;;;;;;;;;;18.69;69.40625;101054.4;;;;-70
2023/08/05 13:07:57;;;;;;;;;;;;;;;18.63;69.89355;101041.3;;;;-72
2023/08/05 13:12:55;;;;;;;;;;;;;;;18.57;70.00977;101036.7;;;;-70
2023/08/05 13:15:18;;;;;;;0.2;0.1;;;;;;;;;;;;;-71
2023/08/05 13:17:54;;;;;;;;;;;;;;;18.58;69.875;101035;;;;-72
2023/08/05 13:22:56;;;;;;;;;;;;;;;18.57;69.85059;101027.7;;;;-71
2023/08/05 13:27:54;;;;;;;;;;;;;;;18.54;69.75488;101027.1;;;;-70
2023/08/05 13:32:55;;;;;;;;;;;;;;;18.51;69.67285;101018.8;;;;-72
2023/08/05 13:37:56;;;;;;;;;;;;;;;18.51;69.9541;101010.3;;;;-72
2023/08/05 13:42:54;;;;;;;;;;;;;;;18.5;70.04395;101017.4;;;;-71
2023/08/05 13:45:21;;;;;;;0.2;0;;;;;;;;;;;;;-70
2023/08/05 13:47:54;;;;;;;;;;;;;;;18.46;69.90137;101007.1;;;;-70
2023/08/05 13:52:54;;;;;;;;;;;;;;;18.47;70.20703;101007;;;;-70
2023/08/05 13:57:58;;;;;;;;;;;;;;;18.45;70.12598;101004.5;;;;-71
2023/08/05 14:02:54;;;;;;;;;;;;;;;18.51;70.12402;101003.4;;;;-72
2023/08/05 14:07:54;;;;;;;;;;;;;;;18.59;70.75781;100982.4;;;;-72
2023/08/05 14:12:54;;;;;;;;;;;;;;;18.67;71.07617;100975;;;;-73
2023/08/05 14:15:24;;;;;;;0.2;0.1;;;;;;;;;;;;;-72
2023/08/05 14:17:54;;;;;;;;;;;;;;;18.77;71.70313;100980.3;;;;-73
2023/08/05 14:22:54;;;;;;;;;;;;;;;18.81;71.57324;100961.5;;;;-71
2023/08/05 14:27:56;;;;;;;;;;;;;;;18.84;71.23828;100954.6;;;;-71
2023/08/05 14:32:54;;;;;;;;;;;;;;;18.77;71.20703;100950.9;;;;-72
2023/08/05 14:37:54;;;;;;;;;;;;;;;18.75;71.1123;100949.2;;;;-67
2023/08/05 14:43:08;;;;;;;;;;;;;;;18.76;71.02344;100948.4;;;;-73
2023/08/05 14:45:39;;;;;;;0.3;0.1;;;;;;;;;;;;;-72
2023/08/05 14:47:54;;;;;;;;;;;;;;;18.75;70.40918;100941.2;;;;-73
2023/08/05 14:52:54;;;;;;;;;;;;;;;18.77;70.19922;100935.3;;;;-72
2023/08/05 14:57:58;;;;;;;;;;;;;;;18.77;69.83691;100932.1;;;;-72
2023/08/05 15:02:54;;;;;;;;;;;;;;;18.67;69.94629;100927.2;;;;-73
2023/08/05 15:12:49;;;;;;;;;;;;;;;18.37;69.68262;100915.9;;;;-72
2023/08/05 15:15:31;;;;;;;0.2;0.1;;;;;;;;;;;;;-72
2023/08/05 15:17:52;;;;;;;;;;;;;;;18.38;69.53809;100898.3;;;;-73
2023/08/05 15:22:52;;;;;;;;;;;;;;;18.49;68.93359;100888;;;;-71
2023/08/05 15:27:49;;;;;;;;;;;;;;;18.61;68.60156;100879.4;;;;-72
2023/08/05 15:32:49;;;;;;;;;;;;;;;18.8;68.6084;100873.7;;;;-67
2023/08/05 15:37:49;;;;;;;;;;;;;;;19.01;68.31348;100867.4;;;;-70
2023/08/05 15:42:49;;;;;;;;;;;;;;;19.18;67.15918;100862.3;;;;-72
2023/08/05 15:45:32;;;;;;;0.2;0.1;;;;;;;;;;;;;-71
2023/08/05 15:47:49;;;;;;;;;;;;;;;19.13;67.19922;100854.6;;;;-73
2023/08/05 15:52:49;;;;;;;;;;;;;;;19.13;67.45801;100840.2;;;;-71
2023/08/05 15:57:53;;;;;;;;;;;;;;;19.12;67.45703;100833.1;;;;-71
2023/08/05 16:02:52;;;;;;;;;;;;;;;19.13;67.16406;100820.2;;;;-70
2023/08/05 16:07:51;;;;;;;;;;;;;;;19.14;67.34668;100814.8;;;;-71
2023/08/05 16:12:49;;;;;;;;;;;;;;;19.18;67.48926;100810.5;;;;-70
2023/08/05 16:15:35;;;;;;;0.2;0;;;;;;;;;;;;;-71
2023/08/05 16:17:49;;;;;;;;;;;;;;;19.23;67.05469;100798.1;;;;-71
2023/08/05 16:22:49;;;;;;;;;;;;;;;19.38;67.16797;100787.8;;;;-72
2023/08/05 16:27:49;;;;;;;;;;;;;;;19.56;67.21875;100792.4;;;;-71
2023/08/05 16:32:49;;;;;;;;;;;;;;;19.69;67.18066;100783.3;;;;-72
2023/08/05 16:37:50;;;;;;;;;;;;;;;19.62;67.31738;100779.5;;;;-71
2023/08/05 16:42:49;;;;;;;;;;;;;;;19.55;67.05664;100775.5;;;;-71
2023/08/05 16:45:39;;;;;;;0.2;0.1;;;;;;;;;;;;;-71
2023/08/05 16:47:49;;;;;;;;;;;;;;;19.46;67.47363;100777;;;;-71
2023/08/05 16:52:49;;;;;;;;;;;;;;;19.48;67.60156;100774.5;;;;-71
2023/08/05 16:57:49;;;;;;;;;;;;;;;19.52;67.46191;100770.5;;;;-72
2023/08/05 17:02:50;;;;;;;;;;;;;;;19.55;67.05859;100769.9;;;;-71
2023/08/05 17:07:49;;;;;;;;;;;;;;;19.45;66.83887;100771.2;;;;-71
2023/08/05 17:12:51;;;;;;;;;;;;;;;19.45;66.06836;100767.9;;;;-72
2023/08/05 17:15:44;;;;;;;0.2;0.1;;;;;;;;;;;;;-72
2023/08/05 17:17:49;;;;;;;;;;;;;;;19.49;65.97168;100773.1;;;;-73
2023/08/05 17:22:49;;;;;;;;;;;;;;;19.46;66.26074;100767.3;;;;-73
2023/08/05 17:27:49;;;;;;;;;;;;;;;19.37;66.42871;100767.8;;;;-72
2023/08/05 17:32:50;;;;;;;;;;;;;;;19.27;66.50586;100762.4;;;;-71
2023/08/05 17:37:56;;;;;;;;;;;;;;;19.22;66.63379;100759.6;;;;-73
2023/08/05 17:42:49;;;;;;;;;;;;;;;19.12;66.61914;100758.9;;;;-73
2023/08/05 17:45:46;;;;;;;0.4;0.1;;;;;;;;;;;;;-70
2023/08/05 17:47:49;;;;;;;;;;;;;;;19.05;66.92676;100752.3;;;;-72
2023/08/05 17:52:50;;;;;;;;;;;;;;;18.93;66.91992;100750.6;;;;-72
2023/08/05 17:57:49;;;;;;;;;;;;;;;18.83;67.34668;100748.3;;;;-70
2023/08/05 18:02:49;;;;;;;;;;;;;;;18.76;67.44727;100746.1;;;;-73
2023/08/05 18:07:50;;;;;;;;;;;;;;;18.66;67.81836;100745;;;;-71
2023/08/05 18:12:49;;;;;;;;;;;;;;;18.57;67.77148;100743;;;;-71
2023/08/05 18:15:47;;;;;;;0.2;0.1;;;;;;;;;;;;;-72
2023/08/05 18:17:49;;;;;;;;;;;;;;;18.49;68.11914;100737.4;;;;-71
2023/08/05 18:22:52;;;;;;;;;;;;;;;18.42;68.20996;100739.4;;;;-72
2023/08/05 18:27:49;;;;;;;;;;;;;;;18.33;68.18457;100734.6;;;;-73
2023/08/05 18:32:49;;;;;;;;;;;;;;;18.26;68.25293;100731;;;;-72
2023/08/05 18:37:50;;;;;;;;;;;;;;;18.17;68.41016;100726.5;;;;-72
2023/08/05 18:42:49;;;;;;;;;;;;;;;18.06;67.81543;100722;;;;-71
2023/08/05 18:45:55;;;;;;;0.3;0.1;;;;;;;;;;;;;-71
2023/08/05 18:47:49;;;;;;;;;;;;;;;17.97;68.15332;100726.3;;;;-72
2023/08/05 18:52:49;;;;;;;;;;;;;;;17.86;67.88672;100725.3;;;;-71
2023/08/05 18:57:53;;;;;;;;;;;;;;;17.76;68.16504;100721.6;;;;-72
2023/08/05 19:02:51;;;;;;;;;;;;;;;17.66;69.16699;100721.4;;;;-71
2023/08/05 19:07:49;;;;;;;;;;;;;;;17.59;69.25488;100722.5;;;;-72
2023/08/05 20:09:00;;;;;;;;;;;;;;;16.76;71.87402;100697.4;;;;-73
2023/08/05 20:13:59;;;;;;;;;;;;;;;16.71;71.96777;100696.1;;;;-74
2023/08/05 20:18:59;;;;;;;;;;;;;;;16.68;72.04199;100691.8;;;;-72
2023/08/05 20:23:59;;;;;;;;;;;;;;;16.65;72.31738;100690;;;;-73
2023/08/05 20:28:59;;;;;;;;;;;;;;;16.63;72.39355;100689.2;;;;-71
2023/08/05 20:30:30;;;;;;;1.1;0.2;;;;;;;;;;;;;-72
2023/08/05 20:34:04;;;;;;;;;;;;;;;16.58;72.74414;100688.7;;;;-71
2023/08/05 20:38:59;;;;;;;;;;;;;;;16.56;72.78613;100683.3;;;;-73
2023/08/05 20:43:59;;;;;;;;;;;;;;;16.53;73.09668;100690.9;;;;-71
2023/08/05 20:48:59;;;;;;;;;;;;;;;16.5;73.2832;100684.5;;;;-71
2023/08/05 20:53:59;;;;;;;;;;;;;;;16.49;73.3584;100676.9;;;;-71
2023/08/05 20:59:00;;;;;;;;;;;;;;;16.46;73.42188;100673.4;;;;-70
2023/08/05 21:00:36;;;;;;;0.2;0.1;;;;;;;;;;;;;-71
2023/08/05 21:03:59;;;;;;;;;;;;;;;16.44;73.37207;100669.6;;;;-70
2023/08/05 21:08:59;;;;;;;;;;;;;;;16.39;73.59082;100668.2;;;;-70
2023/08/05 21:14:01;;;;;;;;;;;;;;;16.35;73.91992;100661.2;;;;-71
2023/08/05 21:18:59;;;;;;;;;;;;;;;16.33;74.26367;100661.8;;;;-71
2023/08/05 21:23:59;;;;;;;;;;;;;;;16.29;74.13379;100667.6;;;;-71
2023/08/05 21:28:59;;;;;;;;;;;;;;;16.26;74.29785;100659.4;;;;-71
2023/08/05 21:30:35;;;;;;;0.2;0;;;;;;;;;;;;;-71
2023/08/05 21:33:59;;;;;;;;;;;;;;;16.28;74.3584;100657.2;;;;-69
2023/08/05 21:38:59;;;;;;;;;;;;;;;16.25;74.54492;100650.3;;;;-70
2023/08/05 21:44:00;;;;;;;;;;;;;;;16.24;74.40625;100648.3;;;;-70
2023/08/05 21:48:59;;;;;;;;;;;;;;;16.23;74.33691;100641.3;;;;-70
2023/08/05 21:53:59;;;;;;;;;;;;;;;16.23;74.42871;100642.8;;;;-70
2023/08/05 21:58:59;;;;;;;;;;;;;;;16.21;74.35645;100643;;;;-69
2023/08/05 22:00:38;;;;;;;0.2;0.1;;;;;;;;;;;;;-72
2023/08/05 22:03:59;;;;;;;;;;;;;;;16.19;74.43164;100638.9;;;;-70
2023/08/05 22:09:00;;;;;;;;;;;;;;;16.2;74.32227;100632.3;;;;-70
2023/08/05 22:13:59;;;;;;;;;;;;;;;16.18;74.14941;100627.1;;;;-70
2023/08/05 22:18:59;;;;;;;;;;;;;;;16.17;74.27344;100627.7;;;;-70
2023/08/05 22:23:59;;;;;;;;;;;;;;;16.15;74.40527;100625.7;;;;-72
2023/08/05 22:28:59;;;;;;;;;;;;;;;16.14;74.36816;100618.2;;;;-70
2023/08/05 22:30:41;;;;;;;0.2;0;;;;;;;;;;;;;-70
2023/08/05 22:33:59;;;;;;;;;;;;;;;16.12;74.65723;100615.5;;;;-70
2023/08/05 22:39:01;;;;;;;;;;;;;;;16.13;74.6582;100611.4;;;;-72
2023/08/05 22:43:59;;;;;;;;;;;;;;;16.12;74.80176;100604.4;;;;-72
2023/08/05 22:49:00;;;;;;;;;;;;;;;16.12;74.76758;100600.2;;;;-70
2023/08/05 22:53:59;;;;;;;;;;;;;;;16.1;74.85449;100596.3;;;;-71
2023/08/05 22:59:00;;;;;;;;;;;;;;;16.11;74.87988;100593.7;;;;-71
2023/08/05 23:00:42;;;;;;;0.2;0.1;;;;;;;;;;;;;-70
2023/08/05 23:03:59;;;;;;;;;;;;;;;16.1;74.85449;100586;;;;-72
2023/08/05 23:08:59;;;;;;;;;;;;;;;16.1;74.65234;100584.6;;;;-71
2023/08/05 23:13:59;;;;;;;;;;;;;;;16.1;74.6084;100578.3;;;;-71
2023/08/05 23:18:59;;;;;;;;;;;;;;;16.08;74.83984;100578.2;;;;-70
2023/08/05 23:24:00;;;;;;;;;;;;;;;16.09;74.91992;100574.9;;;;-71
2023/08/05 23:29:01;;;;;;;;;;;;;;;16.09;74.88672;100570.3;;;;-70
2023/08/05 23:30:46;;;;;;;0.2;0;;;;;;;;;;;;;-70
2023/08/05 23:33:59;;;;;;;;;;;;;;;16.08;74.99707;100567.1;;;;-70
2023/08/05 23:38:59;;;;;;;;;;;;;;;16.08;75.21094;100560.8;;;;-71
2023/08/05 23:43:59;;;;;;;;;;;;;;;16.08;75.32227;100564.8;;;;-70
2023/08/05 23:48:59;;;;;;;;;;;;;;;16.07;75.24219;100564.3;;;;-71
2023/08/05 23:53:59;;;;;;;;;;;;;;;16.06;75.4541;100569.3;;;;-71
2023/08/05 23:58:59;;;;;;;;;;;;;;;16.06;75.22949;100572.5;;;;-70
